Time;durP1;ratioP1;P1;durP2;ratioP2;P2;SDS_P1;SDS_P2;PMS_P1;PMS_P2;Temp;Humidity;BMP_temperature;BMP_pressure;BME280_temperature;BME280_humidity;BME280_pressure;Samples;Min_cycle;Max_cycle;Signal;HPM_P1;HPM_P2
2023/06/28 00:02:47;;;;;;;3.53;1.10;;;;;;;18.48;65.80;100858.50;5030271;28;20437;-81
2023/06/28 00:05:53;;;;;;;4.53;1.38;;;;;;;18.51;65.69;100852.13;5030022;28;20044;-80
2023/06/28 00:08:59;;;;;;;4.55;1.38;;;;;;;18.39;66.21;100847.78;5030761;28;20499;-81
2023/06/28 00:12:05;;;;;;;4.55;1.25;;;;;;;18.46;66.23;100844.53;5031277;28;20056;-81
2023/06/28 00:15:09;;;;;;;3.33;1.25;;;;;;;18.48;65.80;100841.75;5031413;28;20183;-81
2023/06/28 00:18:14;;;;;;;3.78;1.02;;;;;;;18.30;66.16;100841.41;5031153;28;20080;-82
2023/06/28 00:21:22;;;;;;;4.20;1.33;;;;;;;18.41;66.20;100840.56;5031917;28;20095;-82
2023/06/28 00:24:28;;;;;;;4.10;0.90;;;;;;;18.42;66.25;100843.09;5031910;28;20142;-81
2023/06/28 00:27:31;;;;;;;9.95;1.20;;;;;;;18.37;66.35;100842.59;5031675;28;20474;-82
2023/06/28 00:30:37;;;;;;;6.47;1.40;;;;;;;18.25;66.56;100846.22;5019307;28;20521;-81
2023/06/28 00:33:42;;;;;;;2.78;1.30;;;;;;;18.26;66.77;100848.78;5008031;28;20068;-81
2023/06/28 00:36:53;;;;;;;2.55;0.73;;;;;;;18.22;66.92;100847.34;5031639;28;20091;-81
2023/06/28 00:39:58;;;;;;;3.17;1.10;;;;;;;18.31;67.20;100846.59;5019135;28;20411;-81
2023/06/28 00:43:02;;;;;;;3.25;1.20;;;;;;;18.35;66.94;100850.69;5021080;28;20529;-81
2023/06/28 00:46:08;;;;;;;2.67;1.20;;;;;;;18.32;67.22;100842.16;5035158;28;20045;-79
2023/06/28 00:49:12;;;;;;;3.42;1.35;;;;;;;18.27;67.50;100839.84;5034763;28;20110;-79
2023/06/28 00:52:16;;;;;;;5.25;1.63;;;;;;;18.20;67.86;100851.91;5034949;28;20470;-79
2023/06/28 00:55:20;;;;;;;8.40;1.52;;;;;;;18.25;67.51;100852.38;5022591;28;20049;-79
2023/06/28 00:58:27;;;;;;;4.30;1.55;;;;;;;18.21;67.57;100850.94;5022624;28;20083;-79
2023/06/28 01:01:30;;;;;;;3.13;1.40;;;;;;;18.20;67.24;100851.91;5034846;28;20060;-79
2023/06/28 01:04:36;;;;;;;3.50;1.45;;;;;;;18.25;67.24;100854.16;5034639;28;20087;-79
2023/06/28 01:07:43;;;;;;;3.28;1.13;;;;;;;18.14;67.94;100855.03;5022475;28;20414;-77
2023/06/28 01:10:48;;;;;;;4.10;1.20;;;;;;;18.23;67.54;100856.94;5034646;28;20044;-78
2023/06/28 01:13:51;;;;;;;6.05;1.30;;;;;;;18.24;67.13;100861.28;5034488;28;20133;-78
2023/06/28 01:16:55;;;;;;;3.35;1.02;;;;;;;18.23;66.41;100872.84;5034499;28;20606;-78
2023/06/28 01:19:59;;;;;;;3.30;1.40;;;;;;;18.16;67.62;100874.28;5034425;28;20273;-78
2023/06/28 01:23:02;;;;;;;2.95;1.05;;;;;;;18.20;68.08;100869.59;5022143;28;20534;-79
2023/06/28 01:26:08;;;;;;;3.63;1.10;;;;;;;18.24;67.91;100871.84;5034339;28;20091;-79
2023/06/28 01:29:11;;;;;;;4.85;1.42;;;;;;;18.21;67.58;100868.63;5034429;28;20131;-78
2023/06/28 01:32:15;;;;;;;4.70;1.40;;;;;;;18.18;67.89;100867.03;5034491;28;20419;-79
2023/06/28 01:35:19;;;;;;;3.85;1.02;;;;;;;18.16;68.10;100874.28;5021857;28;20096;-78
2023/06/28 01:38:23;;;;;;;6.50;1.30;;;;;;;18.16;68.51;100879.56;5021694;28;20060;-79
2023/06/28 01:41:27;;;;;;;4.20;1.13;;;;;;;18.07;68.83;100881.13;5034066;28;20039;-79
2023/06/28 01:44:32;;;;;;;6.55;1.05;;;;;;;18.02;69.30;100879.78;5021841;28;20043;-79
2023/06/28 01:47:36;;;;;;;2.30;1.00;;;;;;;18.01;69.46;100878.13;5034206;28;20064;-78
2023/06/28 01:50:40;;;;;;;5.38;1.20;;;;;;;18.03;69.65;100884.16;5034026;28;20572;-79
2023/06/28 01:53:45;;;;;;;4.28;1.45;;;;;;;17.94;70.11;100884.88;5033556;28;20041;-79
2023/06/28 01:56:48;;;;;;;2.67;1.02;;;;;;;17.94;68.74;100879.56;5021634;28;20522;-80
2023/06/28 01:59:54;;;;;;;3.95;1.33;;;;;;;17.79;67.97;100881.59;5033933;28;20043;-80
2023/06/28 02:02:58;;;;;;;4.07;1.13;;;;;;;17.89;68.59;100886.03;5033552;28;20052;-80
2023/06/28 02:06:02;;;;;;;3.25;1.38;;;;;;;18.00;67.66;100884.38;5009992;28;20099;-80
2023/06/28 02:09:05;;;;;;;4.22;1.63;;;;;;;17.93;67.92;100883.16;5021141;28;20043;-80
2023/06/28 02:12:09;;;;;;;4.53;1.20;;;;;;;17.92;68.05;100886.78;5033534;28;20466;-80
2023/06/28 02:15:13;;;;;;;2.53;1.05;;;;;;;17.86;69.25;100888.91;5033366;28;20044;-80
2023/06/28 02:18:17;;;;;;;3.97;1.25;;;;;;;17.92;69.56;100881.47;5033289;28;20143;-80
2023/06/28 02:21:21;;;;;;;3.70;1.30;;;;;;;17.96;69.77;100882.91;5021539;28;20080;-80
2023/06/28 02:24:25;;;;;;;5.05;1.42;;;;;;;18.01;70.27;100876.31;5021146;28;20092;-80
2023/06/28 02:27:28;;;;;;;3.33;0.95;;;;;;;17.99;70.28;100874.75;5033125;28;20118;-80
2023/06/28 02:30:32;;;;;;;2.92;0.98;;;;;;;17.94;70.09;100874.28;5033065;28;20414;-80
2023/06/28 02:33:35;;;;;;;5.10;1.73;;;;;;;18.00;69.53;100866.69;5032948;28;20068;-79
2023/06/28 02:36:38;;;;;;;4.38;1.27;;;;;;;17.92;70.38;100881.47;5032985;28;20077;-78
2023/06/28 02:39:41;;;;;;;5.18;1.10;;;;;;;17.87;70.43;100879.22;5032994;28;20048;-78
2023/06/28 02:42:45;;;;;;;4.20;1.35;;;;;;;17.87;70.41;100884.50;5032979;28;20076;-79
2023/06/28 02:45:50;;;;;;;3.05;0.90;;;;;;;17.93;69.69;100883.16;5032788;28;20533;-79
2023/06/28 02:48:54;;;;;;;2.28;1.02;;;;;;;17.94;69.69;100884.88;5032726;28;20205;-78
2023/06/28 02:51:58;;;;;;;3.33;1.10;;;;;;;17.89;70.32;100891.31;5020577;28;20048;-78
2023/06/28 02:55:01;;;;;;;8.85;1.20;;;;;;;17.84;70.00;100893.50;5009094;28;20048;-80
2023/06/28 02:58:06;;;;;;;2.85;1.05;;;;;;;17.92;70.05;100889.41;5020352;28;20418;-80
2023/06/28 03:01:11;;;;;;;2.92;1.20;;;;;;;17.89;69.53;100890.50;5032587;28;20080;-80
2023/06/28 03:04:14;;;;;;;3.20;1.13;;;;;;;17.81;70.26;100884.97;5032775;28;20052;-79
2023/06/28 03:07:18;;;;;;;4.88;1.52;;;;;;;17.80;70.44;100889.38;5020124;28;20105;-79
2023/06/28 03:10:22;;;;;;;3.60;1.20;;;;;;;17.82;70.75;100887.47;5020396;28;20461;-80
2023/06/28 03:13:25;;;;;;;4.32;1.40;;;;;;;17.75;70.97;100891.53;5020118;28;20560;-79
2023/06/28 03:16:30;;;;;;;5.10;1.30;;;;;;;17.72;69.72;100897.06;5031540;28;20433;-80
2023/06/28 03:19:33;;;;;;;3.30;1.45;;;;;;;17.59;70.57;100896.31;5032276;28;20048;-81
2023/06/28 03:22:36;;;;;;;3.13;1.02;;;;;;;17.71;70.05;100895.38;5032634;28;20078;-80
2023/06/28 03:25:40;;;;;;;5.15;1.40;;;;;;;17.74;69.70;100900.44;5031512;28;20052;-80
2023/06/28 03:28:43;;;;;;;4.18;1.52;;;;;;;17.65;69.79;100895.84;5020138;28;20047;-81
2023/06/28 03:31:47;;;;;;;4.68;1.17;;;;;;;17.73;70.02;100897.88;5020022;28;20407;-79
2023/06/28 03:34:51;;;;;;;5.10;1.02;;;;;;;17.83;69.64;100891.78;5018886;28;20053;-79
2023/06/28 03:37:55;;;;;;;6.18;1.40;;;;;;;17.88;69.57;100897.59;5031941;28;20056;-72
2023/06/28 03:40:58;;;;;;;4.35;1.10;;;;;;;17.86;68.87;100894.22;5032066;28;20068;-73
2023/06/28 03:44:01;;;;;;;3.67;1.25;;;;;;;17.86;68.76;100893.38;5019880;28;20040;-72
2023/06/28 03:47:05;;;;;;;2.70;1.02;;;;;;;17.86;68.33;100894.22;5030669;28;20052;-70
2023/06/28 03:50:09;;;;;;;5.72;1.85;;;;;;;17.91;68.56;100899.16;5019939;28;20040;-70
2023/06/28 03:53:12;;;;;;;4.05;1.40;;;;;;;17.81;69.37;100896.38;5030913;28;20121;-72
2023/06/28 03:56:16;;;;;;;3.67;1.30;;;;;;;17.81;71.16;100896.38;5031873;28;20056;-70
2023/06/28 03:59:19;;;;;;;3.30;1.50;;;;;;;17.71;70.36;100898.03;5031838;28;20053;-73
2023/06/28 04:02:23;;;;;;;3.78;1.40;;;;;;;17.71;71.48;100900.66;5031730;28;20123;-72
2023/06/28 04:05:26;;;;;;;4.18;1.33;;;;;;;17.65;71.47;100903.78;5031959;28;20075;-73
2023/06/28 04:08:29;;;;;;;4.55;1.65;;;;;;;17.59;66.95;100910.38;5031857;28;20048;-72
2023/06/28 04:11:33;;;;;;;4.43;1.35;;;;;;;17.39;64.72;100903.94;5031693;28;20621;-81
2023/06/28 04:14:40;;;;;;;6.15;1.38;;;;;;;17.41;65.26;100915.22;5031870;28;20044;-85
2023/06/28 04:17:44;;;;;;;7.70;1.85;;;;;;;17.51;63.72;100914.53;5032238;28;20041;-79
2023/06/28 04:20:47;;;;;;;5.30;2.03;;;;;;;17.20;65.01;100906.28;5023689;28;20083;-76
2023/06/28 04:23:50;;;;;;;7.32;1.85;;;;;;;17.22;65.38;100903.50;5023474;28;20076;-80
2023/06/28 04:27:00;;;;;;;4.55;1.40;;;;;;;17.46;65.51;100916.69;5035854;28;20048;-79
2023/06/28 04:30:03;;;;;;;6.32;1.88;;;;;;;17.61;64.79;100911.09;5035373;28;20099;-76
2023/06/28 04:33:07;;;;;;;7.18;1.88;;;;;;;17.73;64.74;100914.59;5035455;28;20137;-80
2023/06/28 04:36:11;;;;;;;4.82;1.42;;;;;;;17.81;63.97;100914.91;5035425;28;20048;-80
2023/06/28 04:39:14;;;;;;;4.47;1.50;;;;;;;17.83;63.71;100920.91;5035703;28;20096;-76
2023/06/28 04:42:18;;;;;;;7.82;1.75;;;;;;;17.72;63.81;100907.63;5034718;28;20403;-82
2023/06/28 04:45:21;;;;;;;8.07;2.22;;;;;;;17.81;63.69;100900.84;5033924;28;20076;-83
2023/06/28 04:48:24;;;;;;;6.63;1.70;;;;;;;17.77;64.06;100902.88;5020971;28;20308;-81
2023/06/28 04:51:29;;;;;;;6.18;1.23;;;;;;;17.73;63.88;100900.53;5032595;28;20048;-81
2023/06/28 04:54:33;;;;;;;5.10;1.63;;;;;;;17.75;64.55;100896.81;5033282;28;20104;-83
2023/06/28 04:57:41;;;;;;;5.20;1.25;;;;;;;17.72;64.79;100898.84;5033156;28;20279;-83
2023/06/28 05:00:45;;;;;;;3.80;1.27;;;;;;;17.70;65.10;100893.66;5033342;28;20048;-81
2023/06/28 05:03:49;;;;;;;4.50;1.30;;;;;;;17.75;65.25;100890.69;5034378;28;20076;-81
2023/06/28 05:11:19;;;;;;;6.25;1.60;;;;;;;17.80;65.08;100889.38;5034384;28;20043;-80
2023/06/28 05:14:23;;;;;;;5.30;1.70;;;;;;;17.79;64.81;100903.59;5034067;28;20192;-81
2023/06/28 05:17:26;;;;;;;9.10;2.55;;;;;;;17.86;64.42;100896.84;5034211;28;20102;-78
2023/06/28 05:20:31;;;;;;;4.68;1.52;;;;;;;17.79;64.87;100893.00;5034285;28;20091;-77
2023/06/28 05:23:36;;;;;;;5.57;1.55;;;;;;;17.82;65.33;100897.22;5034585;28;20076;-85
2023/06/28 05:26:40;;;;;;;4.15;1.52;;;;;;;17.80;65.82;100893.84;5034546;28;20044;-79
2023/06/28 05:29:43;;;;;;;5.90;1.65;;;;;;;17.72;65.17;100891.75;5021381;28;20048;-79
2023/06/28 05:32:46;;;;;;;3.95;1.50;;;;;;;17.65;66.11;100883.47;5034119;28;20041;-76
2023/06/28 05:35:50;;;;;;;15.07;2.15;;;;;;;17.65;67.67;100901.13;5034062;28;20072;-73
2023/06/28 05:38:55;;;;;;;6.57;1.40;;;;;;;17.61;65.39;100899.66;5033809;28;20474;-72
2023/06/28 05:41:59;;;;;;;5.10;1.80;;;;;;;17.57;65.33;100899.03;5034177;28;20052;-73
2023/06/28 05:45:02;;;;;;;5.47;1.65;;;;;;;17.52;65.03;100897.72;5033981;28;20044;-72
2023/06/28 05:48:05;;;;;;;5.65;1.70;;;;;;;17.47;65.17;100897.22;5033798;28;20129;-72
2023/06/28 05:51:12;;;;;;;6.20;1.63;;;;;;;17.60;64.67;100895.34;5033785;28;20048;-72
2023/06/28 05:54:15;;;;;;;7.68;1.75;;;;;;;17.61;64.72;100891.72;5032949;28;20455;-72
2023/06/28 05:57:19;;;;;;;6.85;1.63;;;;;;;17.57;63.72;100888.47;5033730;28;20044;-72
2023/06/28 06:00:22;;;;;;;5.45;1.38;;;;;;;17.59;63.68;100891.84;5033544;28;20044;-72
2023/06/28 06:03:26;;;;;;;6.45;1.60;;;;;;;17.66;62.04;100893.06;5021277;28;20415;-72
2023/06/28 06:06:29;;;;;;;5.70;1.67;;;;;;;17.69;61.97;100894.63;5033579;28;20059;-72
2023/06/28 06:09:32;;;;;;;4.22;1.40;;;;;;;17.77;62.30;100889.66;5033520;28;20041;-72
2023/06/28 06:12:36;;;;;;;6.43;1.40;;;;;;;17.78;62.61;100895.78;5033515;28;20172;-76
2023/06/28 06:15:40;;;;;;;5.45;1.92;;;;;;;17.64;62.50;100889.72;5032732;28;20103;-71
2023/06/28 06:18:43;;;;;;;5.70;1.75;;;;;;;17.61;63.86;100894.38;5033228;28;20426;-72
2023/06/28 06:21:46;;;;;;;5.75;2.10;;;;;;;17.72;63.00;100889.13;5032494;28;20060;-72
2023/06/28 06:24:49;;;;;;;9.38;2.08;;;;;;;17.89;62.05;100888.69;5032009;28;20088;-72
2023/06/28 06:27:53;;;;;;;3.53;1.40;;;;;;;17.99;62.00;100887.97;5032923;28;20084;-72
2023/06/28 06:30:56;;;;;;;4.95;1.75;;;;;;;18.17;60.99;100883.91;5033112;28;20048;-72
2023/06/28 06:34:03;;;;;;;7.50;2.30;;;;;;;18.22;60.98;100883.53;5033315;28;20040;-72
2023/06/28 06:37:11;;;;;;;4.80;1.60;;;;;;;18.28;59.92;100883.91;5032926;28;20104;-72
2023/06/28 06:40:15;;;;;;;3.60;1.23;;;;;;;18.33;59.70;100892.31;5032191;28;20513;-72
2023/06/28 06:43:19;;;;;;;7.47;1.83;;;;;;;18.50;59.29;100895.44;5032180;28;20048;-72
2023/06/28 06:46:24;;;;;;;5.65;1.30;;;;;;;18.18;59.76;100898.81;5032801;28;20053;-72
2023/06/28 06:49:27;;;;;;;6.13;1.52;;;;;;;18.29;59.82;100887.41;5032884;28;20090;-72
2023/06/28 06:52:30;;;;;;;7.25;1.60;;;;;;;18.32;59.42;100890.63;5032904;28;20095;-72
2023/06/28 06:55:36;;;;;;;5.82;1.80;;;;;;;18.35;59.37;100895.69;5031948;28;20067;-72
2023/06/28 06:58:40;;;;;;;6.53;1.73;;;;;;;18.52;58.82;100897.00;5032919;28;20080;-72
2023/06/28 07:01:43;;;;;;;9.60;2.15;;;;;;;18.43;59.02;100899.53;5032181;28;20071;-72
2023/06/28 07:04:55;;;;;;;6.25;1.65;;;;;;;18.46;58.40;100896.63;5032910;28;20044;-72
2023/06/28 07:07:59;;;;;;;9.10;2.25;;;;;;;18.56;57.71;100897.59;5032543;28;20048;-75
2023/06/28 07:11:03;;;;;;;4.38;1.38;;;;;;;18.79;57.47;100893.97;5032475;28;20544;-74
2023/06/28 07:14:07;;;;;;;5.97;2.10;;;;;;;18.71;57.09;100895.53;5032394;28;20132;-74
2023/06/28 07:17:12;;;;;;;5.47;1.58;;;;;;;18.91;56.83;100893.94;5032615;28;20055;-74
2023/06/28 07:20:15;;;;;;;4.55;1.92;;;;;;;18.79;57.41;100903.72;5032415;28;20561;-74
2023/06/28 07:23:29;;;;;;;5.68;1.52;;;;;;;18.89;56.82;100903.81;5032352;28;20060;-74
2023/06/28 07:26:33;;;;;;;6.32;1.80;;;;;;;19.08;56.10;100904.00;5032556;28;20086;-74
2023/06/28 07:30:03;;;;;;;4.88;1.83;;;;;;;18.93;56.06;100898.16;5032299;28;20407;-74
2023/06/28 07:33:08;;;;;;;7.95;1.77;;;;;;;18.67;55.98;100889.63;5032320;28;20176;-74
2023/06/28 07:36:12;;;;;;;6.90;1.95;;;;;;;18.89;53.95;100885.25;5032209;28;20120;-74
2023/06/28 07:39:15;;;;;;;7.20;1.90;;;;;;;18.87;54.71;100884.56;5032265;28;20131;-79
2023/06/28 07:42:19;;;;;;;5.13;1.52;;;;;;;19.06;53.72;100884.72;5031953;28;20044;-80
2023/06/28 07:45:23;;;;;;;3.97;1.42;;;;;;;19.02;53.04;100878.00;5031320;28;20039;-80
2023/06/28 07:48:27;;;;;;;4.00;1.75;;;;;;;19.22;50.61;100874.53;5031842;28;20088;-80
2023/06/28 07:51:30;;;;;;;5.38;2.30;;;;;;;19.29;50.44;100881.00;5033108;28;20052;-80
2023/06/28 07:54:33;;;;;;;4.63;1.77;;;;;;;19.24;50.06;100877.06;5036270;28;20123;-80
2023/06/28 07:57:37;;;;;;;7.32;1.60;;;;;;;19.28;48.90;100876.69;5036162;28;20099;-80
2023/06/28 08:00:40;;;;;;;4.10;1.23;;;;;;;19.44;48.78;100883.38;5036180;28;20099;-80
2023/06/28 08:03:46;;;;;;;8.48;1.55;;;;;;;19.55;47.90;100877.16;5012870;28;20095;-80
2023/06/28 08:06:49;;;;;;;6.93;1.73;;;;;;;19.24;48.50;100883.22;5024144;28;20040;-80
2023/06/28 08:10:13;;;;;;;7.40;2.10;;;;;;;19.33;48.52;100884.25;5023995;28;20045;-80
2023/06/28 08:13:16;;;;;;;6.00;1.42;;;;;;;19.54;47.49;100884.25;5035898;28;20048;-80
2023/06/28 08:16:19;;;;;;;4.70;1.38;;;;;;;19.26;46.83;100878.63;5035895;28;20048;-80
2023/06/28 08:19:22;;;;;;;5.00;1.38;;;;;;;19.55;47.15;100880.63;5035657;28;20118;-80
2023/06/28 08:22:27;;;;;;;4.28;1.30;;;;;;;19.49;46.80;100876.69;5035681;28;20116;-80
2023/06/28 08:25:33;;;;;;;6.32;1.63;;;;;;;19.20;46.83;100871.16;5035909;28;20555;-80
2023/06/28 08:28:36;;;;;;;5.25;1.67;;;;;;;19.21;46.20;100880.00;5023307;28;20106;-80
2023/06/28 08:31:40;;;;;;;5.85;1.33;;;;;;;19.27;45.47;100882.09;5035661;28;20048;-79
2023/06/28 08:34:44;;;;;;;7.13;1.70;;;;;;;19.43;45.45;100882.53;5035533;28;20150;-79
2023/06/28 08:37:47;;;;;;;4.80;1.60;;;;;;;19.33;46.11;100878.94;5035242;28;20080;-79
2023/06/28 08:40:52;;;;;;;5.40;2.08;;;;;;;19.37;46.79;100877.75;5035442;28;20131;-80
2023/06/28 08:43:56;;;;;;;9.00;1.75;;;;;;;19.48;45.31;100874.16;5035276;28;20061;-80
2023/06/28 08:47:00;;;;;;;9.07;1.67;;;;;;;19.66;44.30;100864.69;5023157;28;20051;-80
2023/06/28 08:50:05;;;;;;;3.75;1.20;;;;;;;19.85;44.50;100865.78;5035348;28;20472;-80
2023/06/28 08:53:10;;;;;;;4.93;1.55;;;;;;;19.97;45.65;100864.69;5035402;28;20052;-79
2023/06/28 08:56:13;;;;;;;3.20;1.00;;;;;;;20.12;45.18;100863.38;5034486;28;20084;-79
2023/06/28 08:59:17;;;;;;;5.15;1.52;;;;;;;20.11;41.77;100850.25;5035255;28;20133;-79
2023/06/28 09:02:23;;;;;;;4.25;1.40;;;;;;;20.41;41.23;100852.00;5034121;28;20106;-79
2023/06/28 09:05:27;;;;;;;4.60;1.10;;;;;;;20.26;40.35;100864.84;5021107;28;20150;-79
2023/06/28 09:08:31;;;;;;;6.72;2.05;;;;;;;20.28;43.71;100862.88;5034221;28;20132;-79
2023/06/28 09:11:36;;;;;;;6.00;2.13;;;;;;;20.27;43.05;100857.72;5021504;28;20048;-79
2023/06/28 09:14:39;;;;;;;3.60;1.77;;;;;;;20.27;44.26;100855.91;5034342;28;20051;-79
2023/06/28 09:17:42;;;;;;;5.63;1.38;;;;;;;20.17;45.76;100860.34;5033455;28;20088;-80
2023/06/28 09:20:51;;;;;;;5.95;1.85;;;;;;;20.40;46.29;100860.97;5034269;28;20102;-80
2023/06/28 09:23:54;;;;;;;6.90;1.90;;;;;;;20.48;46.68;100861.09;5033997;28;20049;-79
2023/06/28 09:27:06;;;;;;;7.93;2.45;;;;;;;20.43;47.37;100861.53;5022146;28;20049;-79
2023/06/28 09:30:18;;;;;;;12.63;2.78;;;;;;;20.31;47.72;100864.44;5022424;28;20044;-79
2023/06/28 09:33:23;;;;;;;6.25;2.08;;;;;;;20.21;48.03;100869.72;5034007;28;20044;-79
2023/06/28 09:36:28;;;;;;;5.30;1.52;;;;;;;20.25;47.48;100868.44;5034454;28;20168;-80
2023/06/28 09:39:36;;;;;;;4.88;2.22;;;;;;;20.19;47.79;100879.59;5034402;28;20048;-79
2023/06/28 09:42:45;;;;;;;4.00;1.60;;;;;;;20.43;47.52;100872.16;5034234;28;20157;-79
2023/06/28 09:45:53;;;;;;;5.45;1.92;;;;;;;20.42;47.38;100874.94;5033598;28;20287;-80
2023/06/28 09:48:58;;;;;;;6.10;2.38;;;;;;;20.72;46.84;100865.25;5034275;28;20120;-80
2023/06/28 09:52:06;;;;;;;4.60;1.88;;;;;;;20.89;46.78;100861.91;5034259;28;20040;-80
2023/06/28 09:55:09;;;;;;;7.55;2.30;;;;;;;20.46;47.70;100856.94;5034034;28;20048;-80
2023/06/28 09:58:19;;;;;;;4.53;1.48;;;;;;;20.56;47.32;100861.31;5034261;28;20124;-80
2023/06/28 10:01:24;;;;;;;6.05;2.00;;;;;;;20.81;46.73;100865.28;5033832;28;20047;-80
2023/06/28 10:04:30;;;;;;;6.20;2.08;;;;;;;21.09;46.73;100868.94;5033973;28;20052;-80
2023/06/28 10:07:34;;;;;;;5.80;2.15;;;;;;;20.74;46.70;100872.13;5033494;28;20407;-80
2023/06/28 10:10:40;;;;;;;7.60;2.08;;;;;;;20.82;46.97;100872.25;5033869;28;20048;-80
2023/06/28 10:13:49;;;;;;;5.60;2.03;;;;;;;21.18;46.29;100864.56;5028328;28;20117;-79
2023/06/28 10:16:53;;;;;;;5.50;1.75;;;;;;;21.39;45.69;100853.81;5033570;28;20048;-80
2023/06/28 10:19:57;;;;;;;6.70;2.22;;;;;;;21.28;45.65;100860.13;5033257;28;20064;-80
2023/06/28 10:23:01;;;;;;;6.55;2.40;;;;;;;20.87;47.51;100853.25;5021277;28;20099;-81
2023/06/28 10:26:05;;;;;;;7.03;2.30;;;;;;;21.00;46.69;100851.16;5032345;28;20454;-80
2023/06/28 10:29:09;;;;;;;6.60;1.88;;;;;;;21.23;46.33;100842.91;5032824;28;20052;-80
2023/06/28 10:32:12;;;;;;;7.43;2.10;;;;;;;21.33;46.50;100857.00;5032963;28;20527;-74
2023/06/28 10:35:15;;;;;;;7.63;2.35;;;;;;;20.99;46.73;100853.94;5033012;28;20087;-80
2023/06/28 10:38:19;;;;;;;5.57;1.95;;;;;;;21.03;46.73;100850.06;5032794;28;20188;-81
2023/06/28 10:41:24;;;;;;;5.13;1.90;;;;;;;21.21;46.64;100844.84;5021025;28;20123;-78
2023/06/28 10:44:28;;;;;;;6.00;1.70;;;;;;;21.35;46.60;100836.47;5020519;28;20092;-77
2023/06/28 10:47:34;;;;;;;5.22;1.75;;;;;;;21.48;46.57;100846.81;5032861;28;20403;-77
2023/06/28 10:50:41;;;;;;;7.95;2.17;;;;;;;21.57;46.46;100844.13;5032841;28;20048;-79
2023/06/28 10:53:55;;;;;;;6.15;1.88;;;;;;;21.39;46.75;100856.47;5032634;28;20219;-77
2023/06/28 10:57:08;;;;;;;5.30;1.88;;;;;;;21.30;46.62;100854.63;5032766;28;20103;-78
2023/06/28 11:00:30;;;;;;;;;;;;;;;21.43;46.63;100844.56;5033089;28;20048;-77
2023/06/28 11:03:45;;;;;;;5.35;2.05;;;;;;;21.65;46.40;100839.91;5020680;28;19920;-74
2023/06/28 11:07:09;;;;;;;10.85;1.60;;;;;;;21.46;45.90;100836.31;5032473;28;20463;-75
2023/06/28 11:10:16;;;;;;;6.00;1.95;;;;;;;21.62;46.13;100832.22;5032614;28;20052;-84
2023/06/28 11:13:45;;;;;;;5.38;1.58;;;;;;;21.93;44.83;100835.47;5032447;28;20056;-78
2023/06/28 11:16:49;;;;;;;4.72;1.77;;;;;;;21.62;45.20;100824.22;5031500;28;20048;-79
2023/06/28 11:20:07;;;;;;;5.88;1.48;;;;;;;22.13;44.10;100823.75;5032415;28;20052;-79
2023/06/28 11:23:23;;;;;;;4.45;1.58;;;;;;;21.97;44.85;100821.72;5032280;28;20084;-79
2023/06/28 11:26:38;;;;;;;3.25;1.30;;;;;;;21.77;45.23;100818.28;5031663;28;20091;-78
2023/06/28 11:30:00;;;;;;;7.28;1.70;;;;;;;22.02;45.04;100819.47;5032339;28;20080;-79
2023/06/28 11:33:03;;;;;;;4.97;1.70;;;;;;;22.06;44.55;100822.66;5019945;28;20045;-79
2023/06/28 11:36:08;;;;;;;4.18;1.58;;;;;;;22.09;44.32;100818.88;5030486;28;20557;-80
2023/06/28 11:39:20;;;;;;;4.85;1.50;;;;;;;22.18;44.29;100832.16;5031518;28;20111;-78
2023/06/28 11:42:23;;;;;;;4.28;1.50;;;;;;;22.25;44.52;100829.75;5030668;28;20048;-79
2023/06/28 11:45:32;;;;;;;4.50;1.63;;;;;;;22.30;43.52;100819.47;5030985;28;20077;-79
2023/06/28 11:48:35;;;;;;;2.50;1.15;;;;;;;22.08;44.31;100830.50;5031465;28;20509;-79
2023/06/28 11:51:41;;;;;;;6.25;1.70;;;;;;;22.12;44.35;100829.22;5031406;28;20045;-80
2023/06/28 11:54:44;;;;;;;6.65;1.20;;;;;;;22.51;43.33;100820.03;5031696;28;20415;-79
2023/06/28 11:57:47;;;;;;;5.72;1.63;;;;;;;22.69;42.89;100821.91;5032046;28;20099;-78
2023/06/28 12:00:51;;;;;;;5.63;1.50;;;;;;;22.85;42.50;100822.06;5031752;28;20048;-76
2023/06/28 12:03:55;;;;;;;4.18;1.17;;;;;;;22.85;42.67;100811.38;5020907;28;20063;-82
2023/06/28 12:07:04;;;;;;;4.53;1.30;;;;;;;23.19;41.92;100813.34;5032216;28;20513;-83
2023/06/28 12:10:09;;;;;;;3.83;1.50;;;;;;;23.15;41.96;100818.16;5020099;28;20043;-80
2023/06/28 12:13:23;;;;;;;4.28;1.30;;;;;;;23.66;41.90;100815.69;5032147;28;20108;-81
2023/06/28 12:16:52;;;;;;;4.53;1.50;;;;;;;23.79;41.81;100808.09;5032074;28;20045;-87
2023/06/28 12:19:57;;;;;;;6.43;1.35;;;;;;;23.98;41.83;100799.00;5031812;28;20131;-84
2023/06/28 12:23:14;;;;;;;5.15;1.40;;;;;;;24.14;41.60;100803.56;5031911;28;20071;-84
2023/06/28 12:26:22;;;;;;;8.40;1.58;;;;;;;23.79;41.49;100807.25;5031792;28;20052;-80
2023/06/28 12:29:29;;;;;;;4.90;1.50;;;;;;;23.75;41.69;100808.59;5031775;28;20080;-82
2023/06/28 12:32:32;;;;;;;6.65;1.48;;;;;;;23.97;40.92;100796.50;5030714;28;20044;-76
2023/06/28 12:35:36;;;;;;;4.57;1.63;;;;;;;23.86;42.35;100801.13;5030442;28;20156;-79
2023/06/28 12:38:44;;;;;;;7.00;1.60;;;;;;;23.64;42.83;100802.50;5032377;28;20056;-80
2023/06/28 12:42:08;;;;;;;7.25;1.90;;;;;;;23.25;43.35;100802.06;5035169;28;20439;-79
2023/06/28 12:45:14;;;;;;;6.88;1.73;;;;;;;23.51;43.48;100787.88;5034928;28;20060;-83
2023/06/28 12:48:21;;;;;;;5.55;1.50;;;;;;;23.86;42.59;100779.75;5035144;28;20095;-85
2023/06/28 12:51:34;;;;;;;5.05;1.40;;;;;;;24.48;41.79;100768.78;5023933;28;20049;-78
2023/06/28 12:54:44;;;;;;;5.72;1.73;;;;;;;24.32;41.84;100774.91;5034925;28;20076;-86
2023/06/28 12:57:47;;;;;;;7.05;1.88;;;;;;;24.03;43.15;100780.69;5034638;28;20048;-81
2023/06/28 13:00:52;;;;;;;8.00;1.80;;;;;;;23.99;42.93;100781.16;5022435;28;20091;-81
2023/06/28 13:42:12;;;;;;;5.90;1.90;;;;;;;24.75;42.07;100756.94;5233067;23;20519;-77
2023/06/28 13:51:42;;;;;;;5.22;1.80;;;;;;;25.05;41.27;100747.41;5399196;23;19962;-78
2023/06/28 13:54:45;;;;;;;5.05;2.15;;;;;;;24.99;41.99;100744.59;4936045;29;20622;-76
2023/06/28 13:57:49;;;;;;;8.65;1.80;;;;;;;24.58;42.60;100742.75;4936059;29;20054;-76
2023/06/28 14:00:56;;;;;;;4.53;1.50;;;;;;;24.31;43.39;100751.88;4913178;29;20162;-76
2023/06/28 14:03:59;;;;;;;3.88;1.52;;;;;;;24.48;42.39;100738.56;4924269;29;20046;-76
2023/06/28 14:07:03;;;;;;;4.47;1.40;;;;;;;24.70;42.79;100747.78;4936707;29;20131;-76
2023/06/28 14:10:06;;;;;;;5.53;1.17;;;;;;;24.63;43.30;100744.91;4936951;29;20079;-76
2023/06/28 14:13:09;;;;;;;5.32;1.70;;;;;;;25.67;41.36;100743.28;4936669;29;20074;-76
2023/06/28 14:16:12;;;;;;;5.40;1.30;;;;;;;25.77;39.91;100743.88;4936197;29;20466;-77
2023/06/28 14:19:15;;;;;;;4.88;1.60;;;;;;;26.32;39.20;100737.59;4935766;29;20548;-77
2023/06/28 14:22:19;;;;;;;4.90;1.70;;;;;;;26.45;38.43;100742.34;4926164;29;20046;-77
2023/06/28 14:25:22;;;;;;;7.13;1.30;;;;;;;26.54;38.64;100746.69;4911826;29;20549;-77
2023/06/28 14:28:29;;;;;;;4.15;1.27;;;;;;;25.45;39.87;100736.81;4932434;29;20051;-78
2023/06/28 14:31:33;;;;;;;4.53;1.88;;;;;;;25.50;40.48;100743.34;4924627;29;20050;-77
2023/06/28 14:34:37;;;;;;;5.43;1.27;;;;;;;26.20;39.36;100744.38;4936223;29;20433;-82
2023/06/28 14:37:41;;;;;;;6.28;1.65;;;;;;;26.82;37.82;100732.72;4936243;29;20134;-79
2023/06/28 14:40:45;;;;;;;6.30;1.40;;;;;;;26.43;38.33;100733.69;4936433;29;20055;-77
2023/06/28 14:43:48;;;;;;;4.13;1.67;;;;;;;26.34;38.84;100730.22;4936046;29;20046;-81
2023/06/28 14:46:51;;;;;;;5.60;1.25;;;;;;;26.60;38.57;100729.88;4936169;29;20137;-79
2023/06/28 14:49:54;;;;;;;7.80;2.25;;;;;;;26.66;37.76;100726.47;4936367;29;20470;-82
2023/06/28 14:52:58;;;;;;;4.25;1.35;;;;;;;26.02;39.04;100730.41;4898246;29;20122;-79
2023/06/28 14:56:02;;;;;;;5.55;1.70;;;;;;;26.47;39.56;100734.97;4886414;29;20672;-79
2023/06/28 14:59:05;;;;;;;3.28;1.48;;;;;;;25.69;40.72;100734.06;4898135;29;20083;-79
2023/06/28 15:02:10;;;;;;;7.18;1.75;;;;;;;25.40;41.02;100726.63;4897844;29;20079;-79
2023/06/28 15:05:13;;;;;;;4.05;1.63;;;;;;;25.98;40.47;100721.91;4897505;29;20043;-80
2023/06/28 15:08:16;;;;;;;4.07;1.40;;;;;;;28.40;35.89;100721.63;4886481;29;20533;-78
2023/06/28 15:11:21;;;;;;;8.75;3.17;;;;;;;29.20;34.91;100709.72;4896660;29;20124;-79